sensor_id;sensor_type;location;lat;lon;timestamp;P1;durP1;ratioP1;P2;durP2;ratioP2
19599;SDS011;9947;57.722;12.012;2022-07-29T00:02:07;5.50;;;3.43;;
19599;SDS011;9947;57.722;12.012;2022-07-29T00:04:38;10.10;;;4.07;;
19599;SDS011;9947;57.722;12.012;2022-07-29T00:07:14;12.30;;;3.77;;
19599;SDS011;9947;57.722;12.012;2022-07-29T00:09:43;16.77;;;7.13;;
19599;SDS011;9947;57.722;12.012;2022-07-29T00:12:10;16.83;;;6.50;;
19599;SDS011;9947;57.722;12.012;2022-07-29T00:14:40;11.33;;;4.47;;
19599;SDS011;9947;57.722;12.012;2022-07-29T00:17:07;7.33;;;3.60;;
19599;SDS011;9947;57.722;12.012;2022-07-29T00:19:34;8.67;;;3.90;;
19599;SDS011;9947;57.722;12.012;2022-07-29T00:22:01;11.83;;;4.10;;
19599;SDS011;9947;57.722;12.012;2022-07-29T00:24:28;11.10;;;4.67;;
19599;SDS011;9947;57.722;12.012;2022-07-29T00:26:55;11.23;;;4.13;;
19599;SDS011;9947;57.722;12.012;2022-07-29T00:29:22;11.13;;;4.23;;
19599;SDS011;9947;57.722;12.012;2022-07-29T00:31:51;8.50;;;4.07;;
19599;SDS011;9947;57.722;12.012;2022-07-29T00:34:17;7.97;;;3.80;;
19599;SDS011;9947;57.722;12.012;2022-07-29T00:37:02;8.77;;;3.93;;
19599;SDS011;9947;57.722;12.012;2022-07-29T00:39:29;6.83;;;3.77;;
19599;SDS011;9947;57.722;12.012;2022-07-29T00:41:55;11.90;;;4.60;;
19599;SDS011;9947;57.722;12.012;2022-07-29T00:44:22;10.73;;;4.67;;
19599;SDS011;9947;57.722;12.012;2022-07-29T00:47:08;8.43;;;4.00;;
19599;SDS011;9947;57.722;12.012;2022-07-29T00:53:22;9.37;;;4.07;;
19599;SDS011;9947;57.722;12.012;2022-07-29T00:56:07;11.83;;;4.10;;
19599;SDS011;9947;57.722;12.012;2022-07-29T00:59:01;7.43;;;4.13;;
19599;SDS011;9947;57.722;12.012;2022-07-29T01:01:47;10.73;;;4.47;;
19599;SDS011;9947;57.722;12.012;2022-07-29T01:07:38;10.20;;;4.57;;
19599;SDS011;9947;57.722;12.012;2022-07-29T01:20:12;11.63;;;4.80;;
19599;SDS011;9947;57.722;12.012;2022-07-29T01:25:45;13.47;;;4.50;;
19599;SDS011;9947;57.722;12.012;2022-07-29T01:28:43;9.77;;;4.13;;
19599;SDS011;9947;57.722;12.012;2022-07-29T01:31:23;10.10;;;3.87;;
19599;SDS011;9947;57.722;12.012;2022-07-29T01:33:57;13.03;;;4.60;;
19599;SDS011;9947;57.722;12.012;2022-07-29T01:36:40;11.03;;;4.20;;
19599;SDS011;9947;57.722;12.012;2022-07-29T01:39:24;10.00;;;4.50;;
19599;SDS011;9947;57.722;12.012;2022-07-29T01:45:50;10.70;;;4.20;;
19599;SDS011;9947;57.722;12.012;2022-07-29T01:56:06;11.23;;;4.00;;
19599;SDS011;9947;57.722;12.012;2022-07-29T01:58:48;10.67;;;4.03;;
19599;SDS011;9947;57.722;12.012;2022-07-29T02:05:13;13.20;;;3.97;;
19599;SDS011;9947;57.722;12.012;2022-07-29T02:08:08;12.50;;;3.90;;
19599;SDS011;9947;57.722;12.012;2022-07-29T02:10:45;9.67;;;4.30;;
19599;SDS011;9947;57.722;12.012;2022-07-29T02:13:14;8.33;;;3.80;;
19599;SDS011;9947;57.722;12.012;2022-07-29T02:15:44;10.87;;;4.20;;
19599;SDS011;9947;57.722;12.012;2022-07-29T02:18:14;6.97;;;4.27;;
19599;SDS011;9947;57.722;12.012;2022-07-29T02:20:49;7.90;;;4.03;;
19599;SDS011;9947;57.722;12.012;2022-07-29T02:23:19;10.90;;;4.23;;
19599;SDS011;9947;57.722;12.012;2022-07-29T02:25:49;10.47;;;3.93;;
19599;SDS011;9947;57.722;12.012;2022-07-29T02:28:19;10.57;;;4.30;;
19599;SDS011;9947;57.722;12.012;2022-07-29T02:30:48;11.97;;;4.10;;
19599;SDS011;9947;57.722;12.012;2022-07-29T02:33:20;16.40;;;4.67;;
19599;SDS011;9947;57.722;12.012;2022-07-29T02:35:54;11.80;;;4.40;;
19599;SDS011;9947;57.722;12.012;2022-07-29T02:38:22;14.40;;;3.80;;
19599;SDS011;9947;57.722;12.012;2022-07-29T02:41:11;15.07;;;3.93;;
19599;SDS011;9947;57.722;12.012;2022-07-29T02:43:50;10.33;;;4.20;;
19599;SDS011;9947;57.722;12.012;2022-07-29T02:46:20;12.17;;;3.80;;
19599;SDS011;9947;57.722;12.012;2022-07-29T02:48:55;8.43;;;3.60;;
19599;SDS011;9947;57.722;12.012;2022-07-29T02:51:32;9.00;;;3.97;;
19599;SDS011;9947;57.722;12.012;2022-07-29T03:00:59;15.27;;;4.53;;
19599;SDS011;9947;57.722;12.012;2022-07-29T03:03:31;11.17;;;4.47;;
19599;SDS011;9947;57.722;12.012;2022-07-29T03:06:02;10.47;;;4.37;;
19599;SDS011;9947;57.722;12.012;2022-07-29T03:08:33;9.80;;;4.10;;
19599;SDS011;9947;57.722;12.012;2022-07-29T03:11:01;8.03;;;4.57;;
19599;SDS011;9947;57.722;12.012;2022-07-29T03:13:28;9.80;;;4.57;;
19599;SDS011;9947;57.722;12.012;2022-07-29T03:15:56;11.27;;;4.57;;
19599;SDS011;9947;57.722;12.012;2022-07-29T03:18:24;8.87;;;4.07;;
19599;SDS011;9947;57.722;12.012;2022-07-29T03:20:52;12.40;;;3.77;;
19599;SDS011;9947;57.722;12.012;2022-07-29T03:23:23;8.60;;;4.07;;
19599;SDS011;9947;57.722;12.012;2022-07-29T03:25:54;13.23;;;4.47;;
19599;SDS011;9947;57.722;12.012;2022-07-29T03:28:23;8.93;;;3.70;;
19599;SDS011;9947;57.722;12.012;2022-07-29T03:30:52;12.33;;;3.83;;
19599;SDS011;9947;57.722;12.012;2022-07-29T03:33:20;9.97;;;4.00;;
19599;SDS011;9947;57.722;12.012;2022-07-29T03:35:47;11.60;;;4.53;;
19599;SDS011;9947;57.722;12.012;2022-07-29T03:38:14;8.43;;;4.37;;
19599;SDS011;9947;57.722;12.012;2022-07-29T03:40:42;10.03;;;3.93;;
19599;SDS011;9947;57.722;12.012;2022-07-29T03:43:16;8.60;;;3.77;;
19599;SDS011;9947;57.722;12.012;2022-07-29T03:49:16;9.07;;;4.20;;
19599;SDS011;9947;57.722;12.012;2022-07-29T03:51:48;5.73;;;3.77;;
19599;SDS011;9947;57.722;12.012;2022-07-29T03:54:15;9.90;;;4.63;;
19599;SDS011;9947;57.722;12.012;2022-07-29T03:56:43;12.33;;;4.87;;
19599;SDS011;9947;57.722;12.012;2022-07-29T03:59:19;10.90;;;4.67;;
19599;SDS011;9947;57.722;12.012;2022-07-29T04:01:48;10.03;;;4.63;;
19599;SDS011;9947;57.722;12.012;2022-07-29T04:04:16;11.50;;;4.27;;
19599;SDS011;9947;57.722;12.012;2022-07-29T04:06:50;7.00;;;4.03;;
19599;SDS011;9947;57.722;12.012;2022-07-29T04:09:21;9.10;;;4.27;;
19599;SDS011;9947;57.722;12.012;2022-07-29T04:11:48;11.40;;;4.40;;
19599;SDS011;9947;57.722;12.012;2022-07-29T04:14:15;7.53;;;3.70;;
19599;SDS011;9947;57.722;12.012;2022-07-29T04:16:43;10.83;;;3.93;;
19599;SDS011;9947;57.722;12.012;2022-07-29T04:19:10;10.83;;;4.23;;
19599;SDS011;9947;57.722;12.012;2022-07-29T04:21:37;6.33;;;3.77;;
19599;SDS011;9947;57.722;12.012;2022-07-29T04:24:04;9.10;;;3.80;;
19599;SDS011;9947;57.722;12.012;2022-07-29T04:26:32;7.53;;;3.77;;
19599;SDS011;9947;57.722;12.012;2022-07-29T04:29:00;9.90;;;4.17;;
19599;SDS011;9947;57.722;12.012;2022-07-29T04:31:43;4.10;;;3.17;;
19599;SDS011;9947;57.722;12.012;2022-07-29T04:34:45;7.40;;;3.77;;
19599;SDS011;9947;57.722;12.012;2022-07-29T04:37:17;7.00;;;3.60;;
19599;SDS011;9947;57.722;12.012;2022-07-29T04:40:05;11.37;;;3.90;;
19599;SDS011;9947;57.722;12.012;2022-07-29T04:42:55;7.33;;;3.67;;
19599;SDS011;9947;57.722;12.012;2022-07-29T04:45:28;11.67;;;4.30;;
19599;SDS011;9947;57.722;12.012;2022-07-29T04:51:26;8.13;;;3.73;;
19599;SDS011;9947;57.722;12.012;2022-07-29T04:53:53;8.23;;;4.07;;
19599;SDS011;9947;57.722;12.012;2022-07-29T04:56:24;8.93;;;3.83;;
19599;SDS011;9947;57.722;12.012;2022-07-29T04:58:59;8.13;;;3.50;;
19599;SDS011;9947;57.722;12.012;2022-07-29T05:04:40;7.50;;;3.80;;
19599;SDS011;9947;57.722;12.012;2022-07-29T05:10:28;11.70;;;3.20;;
19599;SDS011;9947;57.722;12.012;2022-07-29T05:12:55;6.03;;;3.20;;
19599;SDS011;9947;57.722;12.012;2022-07-29T05:15:51;4.07;;;2.70;;
19599;SDS011;9947;57.722;12.012;2022-07-29T05:18:23;4.73;;;2.40;;
19599;SDS011;9947;57.722;12.012;2022-07-29T05:20:50;2.93;;;2.33;;
19599;SDS011;9947;57.722;12.012;2022-07-29T05:23:24;7.10;;;2.40;;
19599;SDS011;9947;57.722;12.012;2022-07-29T05:26:09;3.47;;;2.20;;
19599;SDS011;9947;57.722;12.012;2022-07-29T05:28:37;6.35;;;2.22;;
19599;SDS011;9947;57.722;12.012;2022-07-29T05:31:05;3.78;;;2.22;;
19599;SDS011;9947;57.722;12.012;2022-07-29T05:33:41;7.60;;;2.33;;
19599;SDS011;9947;57.722;12.012;2022-07-29T05:36:08;4.82;;;2.15;;
19599;SDS011;9947;57.722;12.012;2022-07-29T05:38:36;5.95;;;2.20;;
19599;SDS011;9947;57.722;12.012;2022-07-29T05:41:03;5.93;;;2.20;;
19599;SDS011;9947;57.722;12.012;2022-07-29T05:43:31;5.82;;;2.45;;
19599;SDS011;9947;57.722;12.012;2022-07-29T05:45:58;6.35;;;2.30;;
19599;SDS011;9947;57.722;12.012;2022-07-29T05:48:25;4.22;;;2.20;;
19599;SDS011;9947;57.722;12.012;2022-07-29T05:51:01;5.03;;;2.15;;
19599;SDS011;9947;57.722;12.012;2022-07-29T05:53:31;5.65;;;2.38;;
19599;SDS011;9947;57.722;12.012;2022-07-29T05:56:02;4.88;;;2.00;;
19599;SDS011;9947;57.722;12.012;2022-07-29T05:58:30;4.57;;;2.17;;
19599;SDS011;9947;57.722;12.012;2022-07-29T06:00:57;4.97;;;2.70;;
19599;SDS011;9947;57.722;12.012;2022-07-29T06:03:25;4.57;;;2.05;;
19599;SDS011;9947;57.722;12.012;2022-07-29T06:05:55;5.13;;;1.80;;
19599;SDS011;9947;57.722;12.012;2022-07-29T06:08:27;4.97;;;1.90;;
19599;SDS011;9947;57.722;12.012;2022-07-29T06:10:57;7.32;;;1.90;;
19599;SDS011;9947;57.722;12.012;2022-07-29T06:13:27;4.22;;;2.20;;
19599;SDS011;9947;57.722;12.012;2022-07-29T06:15:54;6.57;;;2.28;;
19599;SDS011;9947;57.722;12.012;2022-07-29T06:18:21;4.93;;;1.63;;
19599;SDS011;9947;57.722;12.012;2022-07-29T06:20:49;6.63;;;2.25;;
19599;SDS011;9947;57.722;12.012;2022-07-29T06:23:16;4.28;;;2.20;;
19599;SDS011;9947;57.722;12.012;2022-07-29T06:25:43;6.30;;;2.20;;
19599;SDS011;9947;57.722;12.012;2022-07-29T06:28:10;8.98;;;2.28;;
19599;SDS011;9947;57.722;12.012;2022-07-29T06:30:38;5.13;;;1.60;;
19599;SDS011;9947;57.722;12.012;2022-07-29T06:33:05;5.30;;;1.85;;
19599;SDS011;9947;57.722;12.012;2022-07-29T06:35:32;6.05;;;1.50;;
19599;SDS011;9947;57.722;12.012;2022-07-29T06:38:00;4.80;;;1.70;;
19599;SDS011;9947;57.722;12.012;2022-07-29T06:40:27;7.40;;;1.90;;
19599;SDS011;9947;57.722;12.012;2022-07-29T06:43:11;5.28;;;1.70;;
19599;SDS011;9947;57.722;12.012;2022-07-29T06:45:40;4.60;;;2.00;;
19599;SDS011;9947;57.722;12.012;2022-07-29T06:48:08;3.97;;;1.60;;
19599;SDS011;9947;57.722;12.012;2022-07-29T06:50:34;7.70;;;1.88;;
19599;SDS011;9947;57.722;12.012;2022-07-29T06:53:02;6.30;;;1.70;;
19599;SDS011;9947;57.722;12.012;2022-07-29T06:55:29;5.30;;;1.70;;
19599;SDS011;9947;57.722;12.012;2022-07-29T06:57:56;6.50;;;2.08;;
19599;SDS011;9947;57.722;12.012;2022-07-29T07:00:23;3.90;;;1.70;;
19599;SDS011;9947;57.722;12.012;2022-07-29T07:02:54;6.88;;;1.88;;
19599;SDS011;9947;57.722;12.012;2022-07-29T07:05:30;4.95;;;2.00;;
19599;SDS011;9947;57.722;12.012;2022-07-29T07:07:59;7.57;;;1.98;;
19599;SDS011;9947;57.722;12.012;2022-07-29T07:10:26;3.83;;;1.83;;
19599;SDS011;9947;57.722;12.012;2022-07-29T07:12:54;6.57;;;1.90;;
19599;SDS011;9947;57.722;12.012;2022-07-29T07:15:21;4.47;;;1.80;;
19599;SDS011;9947;57.722;12.012;2022-07-29T07:17:50;7.53;;;1.85;;
19599;SDS011;9947;57.722;12.012;2022-07-29T07:20:18;9.00;;;1.80;;
19599;SDS011;9947;57.722;12.012;2022-07-29T07:22:48;5.60;;;1.92;;
19599;SDS011;9947;57.722;12.012;2022-07-29T07:25:15;4.13;;;1.90;;
19599;SDS011;9947;57.722;12.012;2022-07-29T07:27:43;6.78;;;1.77;;
19599;SDS011;9947;57.722;12.012;2022-07-29T07:30:11;6.90;;;1.90;;
19599;SDS011;9947;57.722;12.012;2022-07-29T07:32:38;4.97;;;2.00;;
19599;SDS011;9947;57.722;12.012;2022-07-29T07:35:07;4.15;;;2.05;;
19599;SDS011;9947;57.722;12.012;2022-07-29T07:37:35;7.47;;;1.73;;
19599;SDS011;9947;57.722;12.012;2022-07-29T07:40:03;5.00;;;1.83;;
19599;SDS011;9947;57.722;12.012;2022-07-29T07:42:31;7.00;;;1.77;;
19599;SDS011;9947;57.722;12.012;2022-07-29T07:44:58;6.28;;;1.90;;
19599;SDS011;9947;57.722;12.012;2022-07-29T07:47:25;6.13;;;2.30;;
19599;SDS011;9947;57.722;12.012;2022-07-29T07:49:52;5.70;;;1.60;;
19599;SDS011;9947;57.722;12.012;2022-07-29T07:52:20;5.63;;;1.50;;
19599;SDS011;9947;57.722;12.012;2022-07-29T07:54:56;3.75;;;1.55;;
19599;SDS011;9947;57.722;12.012;2022-07-29T07:57:26;4.78;;;1.90;;
19599;SDS011;9947;57.722;12.012;2022-07-29T07:59:58;4.90;;;2.13;;
19599;SDS011;9947;57.722;12.012;2022-07-29T08:02:25;6.78;;;2.00;;
19599;SDS011;9947;57.722;12.012;2022-07-29T08:04:52;5.78;;;1.80;;
19599;SDS011;9947;57.722;12.012;2022-07-29T08:07:20;7.03;;;2.40;;
19599;SDS011;9947;57.722;12.012;2022-07-29T08:09:48;5.90;;;2.20;;
19599;SDS011;9947;57.722;12.012;2022-07-29T08:12:14;4.55;;;2.15;;
19599;SDS011;9947;57.722;12.012;2022-07-29T08:14:42;6.00;;;2.83;;
19599;SDS011;9947;57.722;12.012;2022-07-29T08:17:09;7.03;;;2.60;;
19599;SDS011;9947;57.722;12.012;2022-07-29T08:20:18;4.03;;;1.92;;
19599;SDS011;9947;57.722;12.012;2022-07-29T08:23:07;6.70;;;2.10;;
19599;SDS011;9947;57.722;12.012;2022-07-29T08:25:35;7.07;;;2.08;;
19599;SDS011;9947;57.722;12.012;2022-07-29T08:28:03;4.07;;;2.00;;
19599;SDS011;9947;57.722;12.012;2022-07-29T08:30:30;8.85;;;2.40;;
19599;SDS011;9947;57.722;12.012;2022-07-29T08:32:59;6.97;;;2.00;;
19599;SDS011;9947;57.722;12.012;2022-07-29T08:35:26;5.63;;;2.28;;
19599;SDS011;9947;57.722;12.012;2022-07-29T08:37:53;4.13;;;1.83;;
19599;SDS011;9947;57.722;12.012;2022-07-29T08:40:23;6.85;;;2.38;;
19599;SDS011;9947;57.722;12.012;2022-07-29T08:42:50;7.82;;;2.10;;
19599;SDS011;9947;57.722;12.012;2022-07-29T08:45:17;9.52;;;2.25;;
19599;SDS011;9947;57.722;12.012;2022-07-29T08:47:44;8.88;;;2.40;;
19599;SDS011;9947;57.722;12.012;2022-07-29T08:50:12;6.15;;;2.85;;
19599;SDS011;9947;57.722;12.012;2022-07-29T08:52:40;4.78;;;2.10;;
19599;SDS011;9947;57.722;12.012;2022-07-29T08:55:14;4.30;;;1.92;;
19599;SDS011;9947;57.722;12.012;2022-07-29T08:57:46;8.60;;;2.25;;
19599;SDS011;9947;57.722;12.012;2022-07-29T09:00:18;5.45;;;2.08;;
19599;SDS011;9947;57.722;12.012;2022-07-29T09:02:48;5.00;;;1.92;;
19599;SDS011;9947;57.722;12.012;2022-07-29T09:05:22;5.85;;;1.73;;
19599;SDS011;9947;57.722;12.012;2022-07-29T09:07:50;4.50;;;2.10;;
19599;SDS011;9947;57.722;12.012;2022-07-29T09:10:17;3.50;;;1.80;;
19599;SDS011;9947;57.722;12.012;2022-07-29T09:12:45;3.60;;;1.92;;
19599;SDS011;9947;57.722;12.012;2022-07-29T09:15:13;4.18;;;1.70;;
19599;SDS011;9947;57.722;12.012;2022-07-29T09:17:42;5.18;;;1.80;;
19599;SDS011;9947;57.722;12.012;2022-07-29T09:20:11;7.30;;;1.77;;
19599;SDS011;9947;57.722;12.012;2022-07-29T09:22:39;6.65;;;1.63;;
19599;SDS011;9947;57.722;12.012;2022-07-29T09:25:06;4.85;;;1.90;;
19599;SDS011;9947;57.722;12.012;2022-07-29T09:27:34;8.27;;;2.30;;
19599;SDS011;9947;57.722;12.012;2022-07-29T09:30:03;5.80;;;2.40;;
19599;SDS011;9947;57.722;12.012;2022-07-29T09:32:33;4.68;;;2.22;;
19599;SDS011;9947;57.722;12.012;2022-07-29T09:39:00;5.13;;;1.75;;
19599;SDS011;9947;57.722;12.012;2022-07-29T09:41:28;5.82;;;2.08;;
19599;SDS011;9947;57.722;12.012;2022-07-29T09:50:38;4.97;;;1.80;;
19599;SDS011;9947;57.722;12.012;2022-07-29T09:53:06;7.05;;;1.73;;
19599;SDS011;9947;57.722;12.012;2022-07-29T09:55:45;5.35;;;1.70;;
19599;SDS011;9947;57.722;12.012;2022-07-29T09:58:15;4.50;;;1.60;;
19599;SDS011;9947;57.722;12.012;2022-07-29T10:00:42;4.80;;;1.85;;
19599;SDS011;9947;57.722;12.012;2022-07-29T10:03:13;2.92;;;1.60;;
19599;SDS011;9947;57.722;12.012;2022-07-29T10:08:34;12.63;;;2.20;;
19599;SDS011;9947;57.722;12.012;2022-07-29T10:11:08;4.60;;;1.60;;
19599;SDS011;9947;57.722;12.012;2022-07-29T10:13:36;9.13;;;1.80;;
19599;SDS011;9947;57.722;12.012;2022-07-29T10:16:04;4.40;;;1.83;;
19599;SDS011;9947;57.722;12.012;2022-07-29T10:18:35;5.45;;;1.92;;
19599;SDS011;9947;57.722;12.012;2022-07-29T10:21:04;6.35;;;1.90;;
19599;SDS011;9947;57.722;12.012;2022-07-29T10:23:33;5.68;;;1.88;;
19599;SDS011;9947;57.722;12.012;2022-07-29T10:26:00;4.22;;;1.85;;
19599;SDS011;9947;57.722;12.012;2022-07-29T10:28:29;5.75;;;1.73;;
19599;SDS011;9947;57.722;12.012;2022-07-29T10:30:59;3.55;;;1.90;;
19599;SDS011;9947;57.722;12.012;2022-07-29T10:33:32;6.40;;;1.55;;
19599;SDS011;9947;57.722;12.012;2022-07-29T10:36:18;5.78;;;2.17;;
19599;SDS011;9947;57.722;12.012;2022-07-29T10:38:57;5.43;;;1.80;;
19599;SDS011;9947;57.722;12.012;2022-07-29T10:44:25;4.32;;;1.83;;
19599;SDS011;9947;57.722;12.012;2022-07-29T10:46:53;5.65;;;1.63;;
19599;SDS011;9947;57.722;12.012;2022-07-29T10:49:21;7.75;;;1.55;;
19599;SDS011;9947;57.722;12.012;2022-07-29T10:52:00;5.00;;;1.50;;
19599;SDS011;9947;57.722;12.012;2022-07-29T11:15:09;4.78;;;1.60;;
19599;SDS011;9947;57.722;12.012;2022-07-29T11:20:31;6.70;;;1.48;;
19599;SDS011;9947;57.722;12.012;2022-07-29T11:22:59;2.15;;;1.20;;
19599;SDS011;9947;57.722;12.012;2022-07-29T11:25:26;3.80;;;1.50;;
19599;SDS011;9947;57.722;12.012;2022-07-29T11:27:54;3.20;;;1.40;;
19599;SDS011;9947;57.722;12.012;2022-07-29T11:30:48;4.03;;;1.60;;
19599;SDS011;9947;57.722;12.012;2022-07-29T11:33:26;3.65;;;1.40;;
19599;SDS011;9947;57.722;12.012;2022-07-29T11:36:06;2.95;;;1.50;;
19599;SDS011;9947;57.722;12.012;2022-07-29T11:38:41;4.03;;;1.40;;
19599;SDS011;9947;57.722;12.012;2022-07-29T11:41:20;2.63;;;1.40;;
19599;SDS011;9947;57.722;12.012;2022-07-29T11:43:50;4.97;;;1.42;;
19599;SDS011;9947;57.722;12.012;2022-07-29T11:49:23;2.67;;;1.60;;
19599;SDS011;9947;57.722;12.012;2022-07-29T11:51:51;4.50;;;1.40;;
19599;SDS011;9947;57.722;12.012;2022-07-29T11:54:21;4.13;;;1.20;;
19599;SDS011;9947;57.722;12.012;2022-07-29T11:56:51;3.38;;;1.20;;
19599;SDS011;9947;57.722;12.012;2022-07-29T11:59:48;2.03;;;1.23;;
19599;SDS011;9947;57.722;12.012;2022-07-29T12:02:14;1.88;;;1.30;;
19599;SDS011;9947;57.722;12.012;2022-07-29T12:04:52;3.45;;;1.52;;
19599;SDS011;9947;57.722;12.012;2022-07-29T12:07:44;4.43;;;1.50;;
19599;SDS011;9947;57.722;12.012;2022-07-29T12:10:11;4.05;;;1.40;;
19599;SDS011;9947;57.722;12.012;2022-07-29T12:12:39;5.68;;;1.70;;
19599;SDS011;9947;57.722;12.012;2022-07-29T12:15:13;4.72;;;1.40;;
19599;SDS011;9947;57.722;12.012;2022-07-29T12:17:42;2.38;;;1.30;;
19599;SDS011;9947;57.722;12.012;2022-07-29T12:20:21;1.77;;;1.30;;
19599;SDS011;9947;57.722;12.012;2022-07-29T12:22:52;3.92;;;1.42;;
19599;SDS011;9947;57.722;12.012;2022-07-29T12:46:28;2.67;;;1.35;;
19599;SDS011;9947;57.722;12.012;2022-07-29T12:49:35;4.60;;;1.60;;
19599;SDS011;9947;57.722;12.012;2022-07-29T12:52:25;2.25;;;1.20;;
19599;SDS011;9947;57.722;12.012;2022-07-29T12:54:53;4.63;;;1.40;;
19599;SDS011;9947;57.722;12.012;2022-07-29T12:57:20;2.92;;;1.52;;
19599;SDS011;9947;57.722;12.012;2022-07-29T13:00:02;3.80;;;1.30;;
19599;SDS011;9947;57.722;12.012;2022-07-29T13:02:36;2.72;;;1.30;;
19599;SDS011;9947;57.722;12.012;2022-07-29T13:05:04;3.15;;;1.30;;
19599;SDS011;9947;57.722;12.012;2022-07-29T13:07:33;4.82;;;1.50;;
19599;SDS011;9947;57.722;12.012;2022-07-29T13:10:11;7.28;;;1.33;;
19599;SDS011;9947;57.722;12.012;2022-07-29T13:12:39;4.95;;;1.33;;
19599;SDS011;9947;57.722;12.012;2022-07-29T13:15:34;3.63;;;1.67;;
19599;SDS011;9947;57.722;12.012;2022-07-29T13:18:25;2.05;;;1.30;;
19599;SDS011;9947;57.722;12.012;2022-07-29T13:20:53;4.15;;;1.70;;
19599;SDS011;9947;57.722;12.012;2022-07-29T13:23:20;5.18;;;1.60;;
19599;SDS011;9947;57.722;12.012;2022-07-29T13:25:47;6.57;;;1.38;;
19599;SDS011;9947;57.722;12.012;2022-07-29T13:28:14;5.80;;;1.70;;
19599;SDS011;9947;57.722;12.012;2022-07-29T13:30:41;3.58;;;1.70;;
19599;SDS011;9947;57.722;12.012;2022-07-29T13:33:10;2.65;;;1.63;;
19599;SDS011;9947;57.722;12.012;2022-07-29T13:35:37;7.80;;;1.80;;
19599;SDS011;9947;57.722;12.012;2022-07-29T13:38:04;4.40;;;1.58;;
19599;SDS011;9947;57.722;12.012;2022-07-29T13:40:30;2.92;;;1.45;;
19599;SDS011;9947;57.722;12.012;2022-07-29T13:43:00;5.25;;;1.50;;
19599;SDS011;9947;57.722;12.012;2022-07-29T13:45:27;4.43;;;1.75;;
19599;SDS011;9947;57.722;12.012;2022-07-29T13:47:54;3.45;;;1.42;;
19599;SDS011;9947;57.722;12.012;2022-07-29T13:50:22;7.05;;;1.60;;
19599;SDS011;9947;57.722;12.012;2022-07-29T13:52:49;4.82;;;1.50;;
19599;SDS011;9947;57.722;12.012;2022-07-29T13:55:16;4.78;;;1.65;;
19599;SDS011;9947;57.722;12.012;2022-07-29T13:57:43;4.90;;;1.65;;
19599;SDS011;9947;57.722;12.012;2022-07-29T14:00:15;5.35;;;1.73;;
19599;SDS011;9947;57.722;12.012;2022-07-29T14:02:44;2.70;;;1.52;;
19599;SDS011;9947;57.722;12.012;2022-07-29T14:05:10;4.90;;;1.60;;
19599;SDS011;9947;57.722;12.012;2022-07-29T14:07:39;4.75;;;1.48;;
19599;SDS011;9947;57.722;12.012;2022-07-29T14:10:06;4.13;;;1.50;;
19599;SDS011;9947;57.722;12.012;2022-07-29T14:12:34;3.67;;;1.50;;
19599;SDS011;9947;57.722;12.012;2022-07-29T14:15:00;3.50;;;1.50;;
19599;SDS011;9947;57.722;12.012;2022-07-29T14:17:28;2.45;;;1.40;;
19599;SDS011;9947;57.722;12.012;2022-07-29T14:19:57;6.18;;;1.80;;
19599;SDS011;9947;57.722;12.012;2022-07-29T14:22:24;4.35;;;1.85;;
19599;SDS011;9947;57.722;12.012;2022-07-29T14:24:52;7.80;;;3.05;;
19599;SDS011;9947;57.722;12.012;2022-07-29T14:27:21;8.65;;;3.40;;
19599;SDS011;9947;57.722;12.012;2022-07-29T14:29:48;6.30;;;2.10;;
19599;SDS011;9947;57.722;12.012;2022-07-29T14:32:15;9.07;;;2.70;;
19599;SDS011;9947;57.722;12.012;2022-07-29T14:34:41;5.07;;;1.83;;
19599;SDS011;9947;57.722;12.012;2022-07-29T14:37:09;4.18;;;1.50;;
19599;SDS011;9947;57.722;12.012;2022-07-29T14:39:36;4.38;;;1.75;;
19599;SDS011;9947;57.722;12.012;2022-07-29T14:42:04;9.77;;;3.40;;
19599;SDS011;9947;57.722;12.012;2022-07-29T14:44:33;6.55;;;2.40;;
19599;SDS011;9947;57.722;12.012;2022-07-29T14:47:03;4.32;;;1.70;;
19599;SDS011;9947;57.722;12.012;2022-07-29T14:49:33;3.85;;;1.48;;
19599;SDS011;9947;57.722;12.012;2022-07-29T14:52:00;2.20;;;1.40;;
19599;SDS011;9947;57.722;12.012;2022-07-29T14:54:27;4.38;;;1.55;;
19599;SDS011;9947;57.722;12.012;2022-07-29T14:56:54;2.38;;;1.60;;
19599;SDS011;9947;57.722;12.012;2022-07-29T14:59:23;4.55;;;1.60;;
19599;SDS011;9947;57.722;12.012;2022-07-29T15:01:51;2.58;;;1.23;;
19599;SDS011;9947;57.722;12.012;2022-07-29T15:04:18;3.20;;;1.35;;
19599;SDS011;9947;57.722;12.012;2022-07-29T15:06:45;3.15;;;1.55;;
19599;SDS011;9947;57.722;12.012;2022-07-29T15:09:12;2.38;;;1.58;;
19599;SDS011;9947;57.722;12.012;2022-07-29T15:11:39;4.53;;;1.40;;
19599;SDS011;9947;57.722;12.012;2022-07-29T15:14:06;3.17;;;1.30;;
19599;SDS011;9947;57.722;12.012;2022-07-29T15:16:36;2.63;;;1.33;;
19599;SDS011;9947;57.722;12.012;2022-07-29T15:19:03;3.50;;;1.48;;
19599;SDS011;9947;57.722;12.012;2022-07-29T15:21:30;3.17;;;1.60;;
19599;SDS011;9947;57.722;12.012;2022-07-29T15:23:59;3.08;;;1.15;;
19599;SDS011;9947;57.722;12.012;2022-07-29T15:26:26;2.83;;;1.50;;
19599;SDS011;9947;57.722;12.012;2022-07-29T15:28:53;3.53;;;1.52;;
19599;SDS011;9947;57.722;12.012;2022-07-29T15:31:29;2.72;;;2.22;;
19599;SDS011;9947;57.722;12.012;2022-07-29T15:33:57;4.28;;;1.98;;
19599;SDS011;9947;57.722;12.012;2022-07-29T15:36:24;3.13;;;1.70;;
19599;SDS011;9947;57.722;12.012;2022-07-29T15:38:51;3.55;;;1.60;;
19599;SDS011;9947;57.722;12.012;2022-07-29T15:41:22;4.13;;;1.42;;
19599;SDS011;9947;57.722;12.012;2022-07-29T15:43:52;5.95;;;1.35;;
19599;SDS011;9947;57.722;12.012;2022-07-29T15:46:21;5.13;;;1.48;;
19599;SDS011;9947;57.722;12.012;2022-07-29T15:49:07;4.18;;;1.58;;
19599;SDS011;9947;57.722;12.012;2022-07-29T15:51:34;3.38;;;1.45;;
19599;SDS011;9947;57.722;12.012;2022-07-29T15:54:01;3.78;;;1.38;;
19599;SDS011;9947;57.722;12.012;2022-07-29T15:56:32;3.20;;;1.35;;
19599;SDS011;9947;57.722;12.012;2022-07-29T15:59:03;1.30;;;1.20;;
19599;SDS011;9947;57.722;12.012;2022-07-29T16:01:30;2.28;;;1.45;;
19599;SDS011;9947;57.722;12.012;2022-07-29T16:04:00;7.95;;;1.90;;
19599;SDS011;9947;57.722;12.012;2022-07-29T16:06:28;5.97;;;1.70;;
19599;SDS011;9947;57.722;12.012;2022-07-29T16:09:03;5.13;;;1.42;;
19599;SDS011;9947;57.722;12.012;2022-07-29T16:11:30;3.58;;;1.73;;
19599;SDS011;9947;57.722;12.012;2022-07-29T16:14:10;4.28;;;1.60;;
19599;SDS011;9947;57.722;12.012;2022-07-29T16:16:39;2.45;;;1.30;;
19599;SDS011;9947;57.722;12.012;2022-07-29T16:19:06;5.03;;;1.40;;
19599;SDS011;9947;57.722;12.012;2022-07-29T16:21:36;4.65;;;1.60;;
19599;SDS011;9947;57.722;12.012;2022-07-29T16:24:04;3.63;;;1.73;;
19599;SDS011;9947;57.722;12.012;2022-07-29T16:26:31;2.83;;;1.50;;
19599;SDS011;9947;57.722;12.012;2022-07-29T16:28:59;2.53;;;1.30;;
19599;SDS011;9947;57.722;12.012;2022-07-29T16:31:26;2.10;;;1.63;;
19599;SDS011;9947;57.722;12.012;2022-07-29T16:34:00;2.40;;;1.90;;
19599;SDS011;9947;57.722;12.012;2022-07-29T16:36:28;2.40;;;1.30;;
19599;SDS011;9947;57.722;12.012;2022-07-29T16:38:57;2.63;;;1.70;;
19599;SDS011;9947;57.722;12.012;2022-07-29T16:41:27;5.40;;;1.60;;
19599;SDS011;9947;57.722;12.012;2022-07-29T16:43:57;4.65;;;1.48;;
19599;SDS011;9947;57.722;12.012;2022-07-29T16:46:24;2.80;;;1.20;;
19599;SDS011;9947;57.722;12.012;2022-07-29T16:48:51;2.92;;;1.50;;
19599;SDS011;9947;57.722;12.012;2022-07-29T16:51:19;4.53;;;1.40;;
19599;SDS011;9947;57.722;12.012;2022-07-29T16:53:46;3.25;;;1.42;;
19599;SDS011;9947;57.722;12.012;2022-07-29T16:59:17;3.63;;;1.50;;
19599;SDS011;9947;57.722;12.012;2022-07-29T17:01:44;2.55;;;1.50;;
19599;SDS011;9947;57.722;12.012;2022-07-29T17:04:10;4.20;;;1.25;;
19599;SDS011;9947;57.722;12.012;2022-07-29T17:06:39;2.55;;;1.40;;
19599;SDS011;9947;57.722;12.012;2022-07-29T17:09:10;4.70;;;1.85;;
19599;SDS011;9947;57.722;12.012;2022-07-29T17:11:39;2.42;;;1.33;;